Time;durP1;ratioP1;P1;durP2;ratioP2;P2;SDS_P1;SDS_P2;PMS_P1;PMS_P2;Temp;Humidity;BMP_temperature;BMP_pressure;BME280_temperature;BME280_humidity;BME280_pressure;Samples;Min_cycle;Max_cycle;Signal;HPM_P1;HPM_P2
2023/07/02 00:00:13;;;;;;;14.27;5.50;;;;;;;21.33;55.32;100618.03;4968891;28;119693;-72
2023/07/02 00:02:40;;;;;;;9.80;5.22;;;;;;;21.32;55.30;100626.25;4987127;28;119209;-72
2023/07/02 00:05:07;;;;;;;8.93;5.30;;;;;;;21.29;55.18;100618.50;4965468;28;123579;-72
2023/07/02 00:07:36;;;;;;;13.77;5.65;;;;;;;21.27;55.43;100612.41;4984396;28;124331;-72
2023/07/02 00:10:04;;;;;;;14.35;5.68;;;;;;;21.25;55.07;100608.97;4977144;28;120104;-72
2023/07/02 00:12:32;;;;;;;12.20;6.47;;;;;;;21.22;55.11;100593.13;4993470;28;119787;-72
2023/07/02 00:15:01;;;;;;;11.00;5.95;;;;;;;21.19;55.11;100600.50;4967551;28;123557;-72
2023/07/02 00:17:28;;;;;;;12.45;5.88;;;;;;;21.17;55.11;100599.78;4986898;28;123695;-72
2023/07/02 00:19:55;;;;;;;13.00;6.50;;;;;;;21.15;55.01;100588.31;4987117;28;119388;-73
2023/07/02 00:22:22;;;;;;;12.05;6.07;;;;;;;21.15;55.23;100585.63;4987397;28;118825;-73
2023/07/02 00:24:51;;;;;;;12.63;5.95;;;;;;;21.12;55.22;100593.97;4992201;28;123859;-72
2023/07/02 00:27:18;;;;;;;12.05;5.95;;;;;;;21.10;55.12;100574.44;4999778;28;123770;-73
2023/07/02 00:29:45;;;;;;;9.32;5.65;;;;;;;21.10;55.18;100563.66;4986864;28;117306;-72
2023/07/02 00:32:13;;;;;;;13.25;5.85;;;;;;;21.09;55.29;100545.78;4983364;28;118709;-72
2023/07/02 00:34:41;;;;;;;12.38;5.95;;;;;;;21.09;55.29;100550.31;4969379;28;124368;-72
2023/07/02 00:37:08;;;;;;;11.00;5.65;;;;;;;21.08;55.19;100568.34;4967992;28;123654;-73
2023/07/02 00:39:35;;;;;;;13.60;5.90;;;;;;;21.06;55.20;100567.63;4968003;28;119917;-73
2023/07/02 00:42:03;;;;;;;11.82;5.80;;;;;;;21.04;55.28;100590.28;4966986;28;118286;-73
2023/07/02 00:44:30;;;;;;;15.75;6.45;;;;;;;21.01;55.17;100596.81;4995859;28;123650;-72
2023/07/02 00:46:57;;;;;;;14.27;6.43;;;;;;;20.99;55.26;100604.19;4985316;28;123376;-73
2023/07/02 00:49:25;;;;;;;13.95;5.95;;;;;;;20.98;55.19;100607.88;4999431;28;119728;-73
2023/07/02 00:51:53;;;;;;;12.43;6.00;;;;;;;20.97;55.27;100606.19;4970796;28;118261;-73
2023/07/02 00:54:20;;;;;;;12.82;6.57;;;;;;;20.97;55.24;100611.56;4976862;28;122915;-73
2023/07/02 00:56:48;;;;;;;11.52;6.40;;;;;;;20.98;55.21;100614.13;4967077;28;123186;-73
2023/07/02 00:59:15;;;;;;;13.55;6.97;;;;;;;20.98;55.28;100624.03;4967719;28;119876;-73
2023/07/02 01:01:42;;;;;;;18.10;7.18;;;;;;;20.97;55.25;100619.66;4980823;28;119048;-73
2023/07/02 01:04:12;;;;;;;16.40;7.07;;;;;;;20.97;55.15;100615.09;4951206;28;123583;-73
2023/07/02 01:06:43;;;;;;;15.60;6.60;;;;;;;20.97;55.13;100628.56;4985862;28;123863;-73
2023/07/02 01:09:11;;;;;;;11.50;6.32;;;;;;;20.96;55.19;100620.63;4986322;28;120066;-73
2023/07/02 01:11:50;;;;;;;14.48;7.15;;;;;;;20.95;55.27;100624.34;4985104;28;119465;-73
2023/07/02 01:14:25;;;;;;;16.60;7.63;;;;;;;20.95;55.08;100629.72;4982487;28;124091;-73
2023/07/02 01:16:54;;;;;;;;;;;;;;;20.93;55.10;100631.72;4969255;28;122699;-73
2023/07/02 01:19:40;;;;;;;14.15;7.32;;;;;;;20.92;55.06;100619.22;4983528;28;119689;-72
2023/07/02 01:22:08;;;;;;;17.95;8.13;;;;;;;20.89;55.05;100624.88;4986073;28;119567;-73
2023/07/02 01:24:39;;;;;;;15.40;7.88;;;;;;;20.88;55.15;100634.81;4960001;28;124118;-73
2023/07/02 01:27:06;;;;;;;20.02;8.60;;;;;;;20.87;55.07;100637.63;5000721;28;124348;-73
2023/07/02 01:29:37;;;;;;;17.42;8.00;;;;;;;20.85;55.09;100639.63;4971346;28;118632;-73
2023/07/02 01:32:05;;;;;;;16.15;8.07;;;;;;;20.85;55.13;100639.63;4990408;28;120360;-73
2023/07/02 01:34:32;;;;;;;17.08;8.05;;;;;;;20.83;55.18;100645.13;4986934;28;123840;-73
2023/07/02 01:37:00;;;;;;;18.45;8.07;;;;;;;20.83;55.17;100636.22;4971074;28;123873;-72
2023/07/02 01:39:27;;;;;;;17.58;7.93;;;;;;;20.82;55.12;100639.91;4971423;28;119190;-73
2023/07/02 01:42:07;;;;;;;16.38;8.52;;;;;;;20.80;55.10;100648.97;4970953;28;117929;-73
2023/07/02 01:44:35;;;;;;;17.58;8.13;;;;;;;20.80;55.27;100650.81;4970182;28;124675;-73
2023/07/02 01:47:03;;;;;;;17.70;8.27;;;;;;;20.79;55.12;100647.28;4988268;28;124215;-73
2023/07/02 01:49:31;;;;;;;18.80;9.52;;;;;;;20.79;55.14;100649.97;4970712;28;119611;-73
2023/07/02 01:51:58;;;;;;;19.83;9.30;;;;;;;20.77;55.28;100654.63;4988526;28;119796;-73
2023/07/02 01:54:28;;;;;;;17.00;8.52;;;;;;;20.77;55.25;100660.00;4988203;28;124531;-73
2023/07/02 01:56:56;;;;;;;20.67;8.88;;;;;;;20.77;55.34;100670.78;4987046;28;124187;-73
2023/07/02 01:59:24;;;;;;;19.40;7.88;;;;;;;20.77;55.11;100668.06;4970465;28;119173;-73
2023/07/02 02:01:52;;;;;;;17.55;7.60;;;;;;;20.76;54.87;100671.78;4988216;28;118902;-73
2023/07/02 02:04:19;;;;;;;17.00;7.82;;;;;;;20.75;54.90;100672.75;4987986;28;125230;-73
2023/07/02 02:06:46;;;;;;;17.45;8.23;;;;;;;20.74;54.55;100665.69;4987746;28;124125;-73
2023/07/02 02:09:13;;;;;;;16.60;8.10;;;;;;;20.73;54.82;100663.97;4988282;28;119585;-73
2023/07/02 02:11:43;;;;;;;15.60;7.57;;;;;;;20.72;54.49;100662.28;4970567;28;117213;-73
2023/07/02 02:14:11;;;;;;;18.25;8.15;;;;;;;20.71;54.42;100660.56;4983986;28;125046;-72
2023/07/02 02:16:38;;;;;;;21.05;8.18;;;;;;;20.70;54.49;100658.88;4988614;28;123743;-73
2023/07/02 02:19:05;;;;;;;16.88;8.20;;;;;;;20.68;54.58;100663.56;4970217;28;119272;-72
2023/07/02 02:21:33;;;;;;;19.88;8.52;;;;;;;20.65;54.59;100663.81;4985470;28;118474;-73
2023/07/02 02:24:00;;;;;;;19.27;9.20;;;;;;;20.63;54.59;100667.66;4969219;28;123956;-73
2023/07/02 02:26:27;;;;;;;16.55;8.85;;;;;;;20.58;54.55;100670.72;4988095;28;123921;-73
2023/07/02 02:28:54;;;;;;;25.85;10.55;;;;;;;20.54;54.80;100663.91;4969195;28;120196;-73
2023/07/02 02:31:21;;;;;;;20.17;9.50;;;;;;;20.50;54.94;100667.88;4986225;28;119233;-73
2023/07/02 02:33:49;;;;;;;23.95;10.00;;;;;;;20.48;55.08;100669.84;4984704;28;123903;-72
2023/07/02 02:36:17;;;;;;;24.63;11.10;;;;;;;20.46;55.05;100666.47;4977250;28;123173;-73
2023/07/02 02:38:45;;;;;;;24.25;10.93;;;;;;;20.43;55.18;100663.03;4973968;28;119753;-73
2023/07/02 02:41:13;;;;;;;23.67;11.13;;;;;;;20.40;55.21;100668.69;4970875;28;119213;-72
2023/07/02 02:43:46;;;;;;;23.10;11.02;;;;;;;20.37;55.36;100658.19;4986876;28;122695;-73
2023/07/02 02:46:21;;;;;;;23.67;11.13;;;;;;;20.34;55.57;100663.88;4969775;28;124631;-73
2023/07/02 02:48:49;;;;;;;21.40;10.10;;;;;;;20.31;55.48;100674.06;4987917;28;119493;-73
2023/07/02 02:51:16;;;;;;;22.17;10.70;;;;;;;20.29;55.53;100679.56;4988369;28;118964;-73
2023/07/02 02:53:44;;;;;;;24.55;10.85;;;;;;;20.26;55.53;100677.13;4981077;28;123590;-73
2023/07/02 02:56:11;;;;;;;27.67;11.75;;;;;;;20.23;55.70;100680.13;4988196;28;124363;-73
2023/07/02 02:58:39;;;;;;;22.80;10.85;;;;;;;20.21;55.81;100674.00;4988324;28;120764;-73
2023/07/02 03:01:10;;;;;;;23.55;11.13;;;;;;;20.19;55.85;100684.03;4969362;28;118249;-73
2023/07/02 03:03:44;;;;;;;24.27;11.52;;;;;;;20.17;56.08;100688.69;4968866;28;123675;-73
2023/07/02 03:06:14;;;;;;;22.37;10.87;;;;;;;20.16;55.92;100687.00;4969022;28;124126;-73
2023/07/02 03:08:41;;;;;;;23.35;11.02;;;;;;;20.13;55.99;100687.28;4953968;28;119073;-73
2023/07/02 03:11:09;;;;;;;22.63;10.93;;;;;;;20.10;56.14;100684.84;4969140;28;119464;-73
2023/07/02 03:13:36;;;;;;;24.65;11.32;;;;;;;20.07;56.09;100693.19;4968258;28;124023;-73
2023/07/02 03:16:04;;;;;;;22.35;11.60;;;;;;;20.04;56.32;100694.31;4967782;28;122308;-73
2023/07/02 03:18:32;;;;;;;22.92;11.52;;;;;;;20.01;56.19;100705.34;4967376;28;120403;-73
2023/07/02 03:20:59;;;;;;;23.85;11.18;;;;;;;19.98;56.22;100703.75;4980019;28;118322;-73
2023/07/02 03:23:26;;;;;;;24.90;11.27;;;;;;;19.94;56.39;100702.31;4967143;28;123165;-73
2023/07/02 03:25:54;;;;;;;22.63;11.55;;;;;;;19.89;56.41;100701.88;4985923;28;123774;-73
2023/07/02 03:28:21;;;;;;;26.48;11.52;;;;;;;19.88;56.55;100710.09;4986246;28;121610;-73
2023/07/02 03:30:48;;;;;;;18.00;10.75;;;;;;;19.86;56.54;100712.91;4984485;28;119465;-72
2023/07/02 03:33:16;;;;;;;23.40;10.27;;;;;;;19.84;56.53;100714.88;4985265;28;123999;-72
2023/07/02 03:35:43;;;;;;;23.73;10.57;;;;;;;19.84;56.61;100725.63;5000144;28;123106;-73
2023/07/02 03:38:10;;;;;;;28.50;11.15;;;;;;;19.83;56.40;100723.91;4988392;28;119311;-73
2023/07/02 03:40:37;;;;;;;23.17;11.20;;;;;;;19.83;56.56;100718.53;4987002;28;119429;-73
2023/07/02 03:43:05;;;;;;;26.67;12.18;;;;;;;19.80;56.46;100729.56;4969286;28;124581;-73
2023/07/02 03:45:33;;;;;;;22.10;10.35;;;;;;;19.78;56.55;100731.53;4987017;28;123891;-73
2023/07/02 03:48:00;;;;;;;22.75;11.02;;;;;;;19.75;56.53;100731.78;4968859;28;119566;-73
2023/07/02 03:50:27;;;;;;;26.88;10.75;;;;;;;19.74;56.65;100727.38;4969587;28;120105;-73
2023/07/02 03:52:54;;;;;;;24.23;10.95;;;;;;;19.73;56.55;100736.44;4998744;28;124431;-73
2023/07/02 03:55:21;;;;;;;25.88;10.25;;;;;;;19.72;56.63;100738.28;4986639;28;124042;-73
2023/07/02 03:57:48;;;;;;;24.08;11.40;;;;;;;19.70;56.40;100740.19;4991378;28;119257;-72
2023/07/02 04:00:16;;;;;;;23.42;11.40;;;;;;;19.68;56.49;100742.16;4999547;28;118992;-73
2023/07/02 04:02:43;;;;;;;25.35;11.23;;;;;;;19.65;56.54;100748.66;4968701;28;124818;-73
2023/07/02 04:05:10;;;;;;;28.38;11.88;;;;;;;19.62;56.71;100748.91;4984485;28;123706;-73
2023/07/02 04:07:38;;;;;;;25.05;11.45;;;;;;;19.60;56.67;100745.50;4968719;28;119120;-73
2023/07/02 04:10:06;;;;;;;21.92;10.90;;;;;;;19.59;56.95;100749.19;4967775;28;117998;-72
2023/07/02 04:12:33;;;;;;;24.27;11.52;;;;;;;19.59;57.01;100754.56;4985071;28;123298;-72
2023/07/02 04:15:00;;;;;;;24.20;11.93;;;;;;;19.59;56.91;100757.25;4977327;28;123723;-73
2023/07/02 04:17:27;;;;;;;24.13;11.63;;;;;;;19.58;57.00;100752.84;4988710;28;121595;-73
2023/07/02 04:19:55;;;;;;;25.20;11.80;;;;;;;19.57;56.97;100756.53;4968147;28;119358;-73
2023/07/02 04:22:22;;;;;;;25.50;11.85;;;;;;;19.59;57.01;100749.19;4985857;28;124065;-73
2023/07/02 04:24:49;;;;;;;24.60;11.77;;;;;;;19.57;56.89;100756.53;4984765;28;123989;-73
2023/07/02 04:27:22;;;;;;;26.05;11.57;;;;;;;19.57;56.78;100761.03;4983341;28;119304;-73
2023/07/02 04:30:12;;;;;;;24.55;11.65;;;;;;;19.56;56.89;100760.19;4983456;28;119359;-73
2023/07/02 04:32:40;;;;;;;27.80;11.43;;;;;;;19.56;56.82;100754.81;4985959;28;123831;-73
2023/07/02 04:35:08;;;;;;;25.60;11.30;;;;;;;19.55;56.78;100762.97;4983392;28;123704;-73
2023/07/02 04:37:36;;;;;;;29.35;12.27;;;;;;;19.55;56.86;100763.88;4968069;28;118536;-73
2023/07/02 04:40:06;;;;;;;31.20;12.45;;;;;;;19.54;56.92;100770.19;4948415;28;118573;-73
2023/07/02 04:42:37;;;;;;;23.85;12.27;;;;;;;19.56;56.72;100775.44;4981918;28;124049;-72
2023/07/02 04:45:05;;;;;;;30.17;12.40;;;;;;;19.56;56.90;100770.09;4985697;28;124105;-73
2023/07/02 04:47:32;;;;;;;27.83;12.48;;;;;;;19.55;56.85;100774.59;4959555;28;119415;-73
2023/07/02 04:50:00;;;;;;;26.95;12.23;;;;;;;19.58;57.11;100779.69;4986144;28;119059;-73
2023/07/02 04:52:27;;;;;;;23.23;11.27;;;;;;;19.63;57.27;100790.09;4988685;28;124148;-73
2023/07/02 04:54:56;;;;;;;23.23;11.52;;;;;;;19.69;57.08;100786.03;4989576;28;123833;-73
2023/07/02 04:57:23;;;;;;;24.35;11.98;;;;;;;19.72;56.72;100775.00;4971916;28;119131;-73
2023/07/02 04:59:50;;;;;;;23.05;11.55;;;;;;;19.76;56.70;100776.47;4971984;28;118799;-73
2023/07/02 05:02:17;;;;;;;25.05;11.68;;;;;;;19.78;56.58;100778.06;4989212;28;124149;-73
2023/07/02 05:04:45;;;;;;;23.65;11.68;;;;;;;19.82;56.61;100786.72;4970684;28;122867;-73
2023/07/02 05:07:12;;;;;;;22.75;11.50;;;;;;;19.87;56.50;100783.63;4989052;28;120485;-73
2023/07/02 05:09:39;;;;;;;25.08;12.23;;;;;;;19.90;56.18;100781.53;4989238;28;120513;-73
2023/07/02 05:12:06;;;;;;;27.90;11.55;;;;;;;19.94;56.24;100785.66;4988663;28;124140;-73
2023/07/02 05:14:34;;;;;;;25.23;11.10;;;;;;;19.98;56.22;100784.41;4998265;28;124184;-72
2023/07/02 05:17:01;;;;;;;25.85;11.88;;;;;;;20.00;56.09;100779.78;5001626;28;118496;-73
2023/07/02 05:19:28;;;;;;;24.55;11.40;;;;;;;20.02;55.85;100791.25;4977866;28;118073;-72
2023/07/02 05:21:56;;;;;;;25.52;11.65;;;;;;;20.04;55.95;100783.03;4988676;28;124676;-73
2023/07/02 05:24:23;;;;;;;26.02;11.38;;;;;;;20.06;55.72;100782.91;4986197;28;124155;-73
2023/07/02 05:26:50;;;;;;;28.10;11.55;;;;;;;20.08;55.67;100794.38;4989061;28;119253;-73
2023/07/02 05:29:18;;;;;;;24.13;10.75;;;;;;;20.10;55.43;100795.09;4996495;28;119052;-73
2023/07/02 05:31:46;;;;;;;22.48;10.00;;;;;;;20.10;55.33;100800.47;4989362;28;124487;-73
2023/07/02 05:34:13;;;;;;;20.85;9.73;;;;;;;20.10;54.98;100804.03;4969659;28;123680;-72
2023/07/02 05:36:40;;;;;;;22.00;9.55;;;;;;;20.12;54.86;100814.66;4970183;28;119098;-73
2023/07/02 05:39:07;;;;;;;23.83;9.68;;;;;;;20.14;54.71;100820.75;4988964;28;119054;-73
2023/07/02 05:41:34;;;;;;;21.10;9.15;;;;;;;20.16;54.65;100818.78;4995912;28;124535;-73
2023/07/02 05:44:02;;;;;;;19.00;8.85;;;;;;;20.18;54.55;100816.81;4988878;28;124318;-73
2023/07/02 05:46:29;;;;;;;17.77;8.80;;;;;;;20.23;54.39;100811.91;4988713;28;119687;-72
2023/07/02 05:48:57;;;;;;;20.25;8.85;;;;;;;20.26;54.02;100822.38;4985684;28;118943;-73
2023/07/02 05:51:24;;;;;;;21.58;8.10;;;;;;;20.28;53.77;100823.09;4985829;28;124399;-73
2023/07/02 05:53:51;;;;;;;23.98;9.05;;;;;;;20.29;53.49;100822.13;4988674;28;124211;-72
2023/07/02 05:56:19;;;;;;;20.40;7.70;;;;;;;20.32;53.47;100829.91;4988644;28;119955;-73
2023/07/02 05:58:46;;;;;;;19.15;7.97;;;;;;;20.37;53.05;100830.38;4989548;28;120118;-73
2023/07/02 06:01:15;;;;;;;17.67;8.00;;;;;;;20.41;53.21;100831.78;4987947;28;124014;-73
2023/07/02 06:03:45;;;;;;;17.95;8.10;;;;;;;20.48;53.12;100832.13;4969178;28;125017;-73
2023/07/02 06:06:12;;;;;;;20.67;8.25;;;;;;;20.53;52.73;100834.41;4982189;28;118704;-73
2023/07/02 06:08:39;;;;;;;17.58;7.38;;;;;;;20.58;52.67;100826.78;4987546;28;119524;-73
2023/07/02 06:11:06;;;;;;;17.08;6.85;;;;;;;20.64;52.66;100837.03;4984006;28;123357;-73
2023/07/02 06:13:33;;;;;;;17.80;7.25;;;;;;;20.69;52.31;100842.88;4983807;28;123956;-72
2023/07/02 06:16:01;;;;;;;17.70;7.18;;;;;;;20.71;51.80;100838.22;4987669;28;119015;-73
2023/07/02 06:18:28;;;;;;;16.40;6.78;;;;;;;20.73;51.65;100847.00;4988054;28;119196;-72
2023/07/02 06:20:55;;;;;;;18.42;6.78;;;;;;;20.76;51.43;100846.75;4987355;28;125408;-73
2023/07/02 06:23:23;;;;;;;16.08;7.25;;;;;;;20.78;51.18;100850.16;4987899;28;124142;-73
2023/07/02 06:25:52;;;;;;;15.18;6.63;;;;;;;20.82;51.09;100844.50;4987778;28;119298;-72
2023/07/02 06:28:20;;;;;;;19.38;6.38;;;;;;;20.86;51.16;100851.31;4964878;28;119077;-72
2023/07/02 06:30:47;;;;;;;17.77;7.00;;;;;;;20.89;51.03;100842.94;4977764;28;123675;-72
2023/07/02 06:33:15;;;;;;;17.92;7.07;;;;;;;20.94;50.68;100859.56;4993003;28;122951;-73
2023/07/02 06:35:42;;;;;;;14.30;6.47;;;;;;;20.97;50.73;100859.28;4970294;28;120022;-72
2023/07/02 06:38:09;;;;;;;17.42;6.18;;;;;;;21.02;50.50;100857.06;4988573;28;119343;-73
2023/07/02 06:40:36;;;;;;;16.02;6.13;;;;;;;21.06;50.46;100858.47;4987338;28;124499;-73
2023/07/02 06:43:03;;;;;;;13.95;6.00;;;;;;;21.12;50.29;100863.31;4969841;28;123775;-73
2023/07/02 06:45:31;;;;;;;17.20;6.10;;;;;;;21.17;50.14;100869.13;4987184;28;120594;-73
2023/07/02 06:47:58;;;;;;;13.18;6.05;;;;;;;21.21;50.03;100872.41;4970301;28;119523;-73
2023/07/02 06:50:25;;;;;;;13.00;5.90;;;;;;;21.27;49.76;100865.63;4969783;28;123549;-73
2023/07/02 06:52:52;;;;;;;15.32;5.90;;;;;;;21.32;49.67;100876.81;5000713;28;123770;-72
2023/07/02 06:55:20;;;;;;;16.58;5.43;;;;;;;21.37;49.33;100871.88;4970069;28;119283;-73
2023/07/02 06:57:47;;;;;;;15.05;5.90;;;;;;;21.40;49.07;100877.00;4969861;28;118797;-73
2023/07/02 07:00:14;;;;;;;13.52;5.53;;;;;;;21.42;48.87;100883.09;4969957;28;123135;-73
2023/07/02 07:02:42;;;;;;;13.13;5.57;;;;;;;21.44;48.77;100883.84;4987782;28;124057;-73
2023/07/02 07:05:09;;;;;;;11.90;4.75;;;;;;;21.47;48.57;100886.22;4987111;28;119598;-72
2023/07/02 07:07:37;;;;;;;14.98;5.15;;;;;;;21.49;48.21;100891.50;4989426;28;119716;-72
2023/07/02 07:10:04;;;;;;;12.25;4.60;;;;;;;21.52;48.05;100881.28;4997004;28;124467;-73
2023/07/02 07:12:32;;;;;;;13.80;4.88;;;;;;;21.57;47.92;100902.44;4987624;28;125408;-72
2023/07/02 07:14:59;;;;;;;12.07;4.55;;;;;;;21.62;47.69;100902.00;4987713;28;119219;-72
2023/07/02 07:17:26;;;;;;;11.07;4.32;;;;;;;21.66;47.23;100892.66;4970350;28;119457;-73
2023/07/02 07:19:54;;;;;;;14.05;4.60;;;;;;;21.67;47.23;100900.59;4988000;28;124648;-72
2023/07/02 07:22:21;;;;;;;12.57;5.00;;;;;;;21.72;47.18;100908.28;4987072;28;123717;-72
2023/07/02 07:24:48;;;;;;;12.15;4.85;;;;;;;21.75;47.08;100908.00;4969447;28;119251;-73
2023/07/02 07:27:15;;;;;;;11.10;4.07;;;;;;;21.79;47.17;100906.72;4988130;28;118958;-72
2023/07/02 07:29:43;;;;;;;12.57;4.88;;;;;;;21.82;47.05;100914.53;4978156;28;123022;-73
2023/07/02 07:32:10;;;;;;;11.93;4.65;;;;;;;21.84;47.19;100904.44;4985635;28;123880;-73
2023/07/02 07:34:37;;;;;;;13.07;4.93;;;;;;;21.90;47.21;100922.75;4987155;28;120847;-73
2023/07/02 07:37:05;;;;;;;15.00;5.32;;;;;;;21.95;46.80;100915.09;4952603;28;119506;-73
2023/07/02 07:39:32;;;;;;;11.30;5.10;;;;;;;22.00;46.72;100927.31;4988173;28;124129;-73
2023/07/02 07:41:59;;;;;;;14.20;5.35;;;;;;;22.02;46.65;100925.31;4989000;28;124555;-73
2023/07/02 07:44:30;;;;;;;12.52;5.30;;;;;;;22.06;46.84;100922.22;4971220;28;119280;-73
2023/07/02 07:46:58;;;;;;;12.93;5.40;;;;;;;22.17;46.46;100926.63;4992287;28;119082;-73
2023/07/02 07:49:25;;;;;;;12.18;5.55;;;;;;;22.25;46.45;100925.91;4981267;28;124698;-72
2023/07/02 07:51:52;;;;;;;16.00;5.90;;;;;;;22.31;46.52;100925.34;4981030;28;124117;-72
2023/07/02 07:54:19;;;;;;;14.13;4.82;;;;;;;22.38;46.51;100920.22;4996634;28;119948;-72
2023/07/02 07:56:46;;;;;;;16.00;5.38;;;;;;;22.46;46.56;100923.91;4988465;28;118527;-73
2023/07/02 07:59:14;;;;;;;11.25;5.15;;;;;;;22.55;46.67;100916.81;4986910;28;124058;-73
2023/07/02 08:01:41;;;;;;;11.10;5.10;;;;;;;22.65;46.25;100928.41;4986601;28;124393;-73
2023/07/02 08:04:09;;;;;;;10.90;5.40;;;;;;;22.70;46.30;100920.72;4987032;28;120139;-71
2023/07/02 08:06:36;;;;;;;13.75;5.70;;;;;;;22.78;45.92;100916.47;4957994;28;119065;-72
2023/07/02 08:09:03;;;;;;;10.68;5.07;;;;;;;22.82;45.80;100923.25;4969211;28;124136;-72
2023/07/02 08:11:30;;;;;;;14.00;5.40;;;;;;;22.86;45.44;100924.66;4999629;28;123954;-72
2023/07/02 08:13:58;;;;;;;14.23;5.20;;;;;;;22.89;45.29;100930.63;5004101;28;118805;-72
2023/07/02 08:16:25;;;;;;;11.82;5.07;;;;;;;22.90;45.03;100942.28;4983845;28;119534;-73
2023/07/02 08:18:52;;;;;;;9.35;4.57;;;;;;;22.93;44.95;100936.59;5001796;28;124019;-71
2023/07/02 08:21:19;;;;;;;12.23;5.35;;;;;;;22.94;44.81;100938.28;5002822;28;123702;-73
2023/07/02 08:23:47;;;;;;;11.82;4.70;;;;;;;22.94;44.87;100932.88;4987134;28;120283;-72
2023/07/02 08:26:14;;;;;;;14.10;5.25;;;;;;;22.93;44.54;100955.50;4989455;28;120522;-73
2023/07/02 08:28:41;;;;;;;11.07;4.72;;;;;;;22.90;44.47;100958.47;4993230;28;124016;-72
2023/07/02 08:31:08;;;;;;;12.90;4.88;;;;;;;22.89;43.89;100956.78;4977148;28;122890;-72
2023/07/02 08:33:36;;;;;;;13.40;4.75;;;;;;;22.83;43.73;100951.94;4993153;28;119265;-73
2023/07/02 08:36:03;;;;;;;11.68;4.88;;;;;;;22.81;43.56;100954.81;4975638;28;119244;-72
2023/07/02 08:38:30;;;;;;;7.90;4.30;;;;;;;22.79;43.65;100950.53;4974579;28;123780;-73
2023/07/02 08:40:58;;;;;;;11.38;5.35;;;;;;;22.77;43.61;100957.94;4993084;28;124062;-73
2023/07/02 08:43:27;;;;;;;9.73;4.32;;;;;;;22.77;43.50;100958.78;4992661;28;119216;-72
2023/07/02 08:45:54;;;;;;;10.93;5.05;;;;;;;22.78;43.43;100959.66;4992957;28;119069;-73
2023/07/02 08:48:23;;;;;;;10.30;4.80;;;;;;;22.77;43.30;100968.75;4991522;28;124057;-72
2023/07/02 08:50:50;;;;;;;12.73;4.70;;;;;;;22.76;43.54;100956.25;4992825;28;124416;-73
2023/07/02 08:53:19;;;;;;;14.55;4.70;;;;;;;22.76;43.68;100967.06;4984583;28;120081;-72
2023/07/02 08:55:47;;;;;;;11.15;4.55;;;;;;;22.82;43.64;100961.06;4984720;28;119711;-73
2023/07/02 08:58:15;;;;;;;11.27;4.90;;;;;;;22.90;43.77;100963.88;4974802;28;123241;-73
2023/07/02 09:01:05;;;;;;;11.93;4.32;;;;;;;23.03;43.99;100966.25;4974774;28;124190;-72
2023/07/02 09:03:33;;;;;;;11.15;4.70;;;;;;;23.09;43.27;100969.28;4967664;28;118410;-72
2023/07/02 09:06:00;;;;;;;10.73;4.60;;;;;;;23.12;43.06;100962.72;5001167;28;119605;-73
2023/07/02 09:08:28;;;;;;;10.45;4.70;;;;;;;23.10;42.61;100976.34;4992948;28;124100;-73
2023/07/02 09:11:19;;;;;;;11.95;4.45;;;;;;;23.04;42.42;100971.56;4973838;28;123039;-73
2023/07/02 09:13:58;;;;;;;8.80;4.30;;;;;;;23.00;42.35;100989.03;4971353;28;120098;-72
2023/07/02 09:16:36;;;;;;;12.40;4.30;;;;;;;22.95;42.16;100977.81;4977817;28;119860;-72
2023/07/02 09:19:07;;;;;;;10.73;4.78;;;;;;;22.89;42.39;100984.66;4989397;28;123964;-73
2023/07/02 09:21:45;;;;;;;9.90;4.10;;;;;;;22.86;42.27;100986.78;4990214;28;123624;-73
2023/07/02 09:24:18;;;;;;;8.80;4.30;;;;;;;22.81;42.42;100986.34;4990136;28;119819;-73
2023/07/02 09:26:50;;;;;;;12.82;4.82;;;;;;;22.81;42.57;100981.84;4989878;28;119283;-71
2023/07/02 09:29:39;;;;;;;11.48;4.85;;;;;;;22.89;42.78;100983.81;4989364;28;124215;-73
2023/07/02 09:32:10;;;;;;;9.98;4.68;;;;;;;23.00;42.85;100985.47;4973837;28;123564;-72
2023/07/02 09:34:40;;;;;;;14.20;4.95;;;;;;;23.09;42.58;100985.47;4974730;28;119356;-73
2023/07/02 09:37:07;;;;;;;11.80;5.22;;;;;;;23.20;42.69;100980.88;4973534;28;118401;-73
2023/07/02 09:39:36;;;;;;;13.23;4.80;;;;;;;23.31;42.09;100980.69;4988846;28;123652;-72
2023/07/02 09:42:06;;;;;;;15.10;4.82;;;;;;;23.35;41.28;100974.00;4988627;28;123873;-73
2023/07/02 09:44:35;;;;;;;9.55;4.22;;;;;;;23.33;41.26;100971.44;4989172;28;119421;-72
2023/07/02 09:47:03;;;;;;;11.45;4.72;;;;;;;23.35;41.00;100968.59;4984730;28;118891;-73
2023/07/02 09:49:35;;;;;;;9.68;4.15;;;;;;;23.39;40.87;100963.72;4980598;28;124036;-72
2023/07/02 09:52:08;;;;;;;11.98;4.78;;;;;;;23.47;41.18;100967.41;4976492;28;124686;-72
2023/07/02 09:54:36;;;;;;;10.60;4.72;;;;;;;23.60;41.25;100966.16;4974961;28;118699;-72
2023/07/02 09:57:05;;;;;;;11.45;4.70;;;;;;;23.70;41.03;100966.97;4971787;28;117779;-73
2023/07/02 09:59:34;;;;;;;12.32;4.68;;;;;;;23.79;41.20;100967.94;4970829;28;124380;-73
2023/07/02 10:02:01;;;;;;;11.13;4.95;;;;;;;23.87;41.01;100971.59;4989192;28;124326;-71
2023/07/02 10:04:39;;;;;;;12.25;4.35;;;;;;;23.99;41.25;100976.78;4988050;28;119988;-72
2023/07/02 10:07:07;;;;;;;13.07;4.45;;;;;;;24.12;41.55;100982.66;4988685;28;120224;-72
2023/07/02 10:09:39;;;;;;;14.75;4.88;;;;;;;24.26;40.99;100979.44;4970913;28;124615;-72
2023/07/02 10:12:21;;;;;;;12.93;4.75;;;;;;;24.33;40.56;100978.78;4969419;28;124655;-72
2023/07/02 10:14:50;;;;;;;12.93;4.88;;;;;;;24.32;40.54;100987.91;4985551;28;120061;-73
2023/07/02 10:17:28;;;;;;;10.20;4.93;;;;;;;24.29;40.26;100989.09;4968305;28;119772;-73
2023/07/02 10:20:06;;;;;;;9.63;4.28;;;;;;;24.23;40.08;100990.56;4992636;28;124845;-72
2023/07/02 10:22:47;;;;;;;12.18;4.55;;;;;;;24.14;39.99;100991.47;5003831;28;123390;-73
2023/07/02 10:25:26;;;;;;;12.80;4.95;;;;;;;24.06;39.90;100999.53;4968130;28;118460;-72
2023/07/02 10:27:53;;;;;;;11.80;4.57;;;;;;;23.98;40.10;100996.72;4980905;28;119921;-72
2023/07/02 10:30:31;;;;;;;7.90;4.22;;;;;;;23.95;40.59;100997.88;4986851;28;124451;-73
2023/07/02 10:33:13;;;;;;;11.45;4.40;;;;;;;24.01;40.62;101004.53;4976891;28;122911;-72
2023/07/02 10:35:44;;;;;;;14.45;4.55;;;;;;;24.05;40.53;101003.22;4973728;28;119526;-72
2023/07/02 10:38:15;;;;;;;12.07;4.65;;;;;;;24.03;40.17;101000.66;4984747;28;119583;-73
2023/07/02 10:40:43;;;;;;;15.38;5.00;;;;;;;24.01;40.62;101002.66;4984963;28;123825;-73
2023/07/02 10:43:11;;;;;;;12.60;4.60;;;;;;;24.07;40.53;101001.22;4987472;28;123775;-72
2023/07/02 10:45:38;;;;;;;12.35;4.93;;;;;;;24.18;40.50;101002.84;4987693;28;119629;-71
2023/07/02 10:48:09;;;;;;;11.23;4.80;;;;;;;24.32;40.29;101001.44;4987876;28;119745;-74
2023/07/02 10:50:36;;;;;;;14.68;4.88;;;;;;;24.40;39.96;100996.13;4949266;28;123102;-72
2023/07/02 10:53:04;;;;;;;9.55;4.35;;;;;;;24.41;39.76;101009.50;4997763;28;124414;-72
2023/07/02 10:55:31;;;;;;;11.63;4.90;;;;;;;24.41;39.44;101003.22;4987349;28;120495;-72
2023/07/02 10:58:07;;;;;;;10.85;5.30;;;;;;;24.34;39.62;101019.25;4992710;28;119812;-72
2023/07/02 11:00:51;;;;;;;10.25;4.78;;;;;;;24.28;39.58;101019.88;4982026;28;123601;-73
2023/07/02 11:03:24;;;;;;;12.68;4.90;;;;;;;24.22;39.53;101015.94;4987170;28;123735;-71
2023/07/02 11:05:52;;;;;;;12.88;5.07;;;;;;;24.17;39.34;101012.00;4963102;28;119478;-72
2023/07/02 11:08:24;;;;;;;10.10;5.03;;;;;;;24.14;39.28;101018.53;4983948;28;119271;-71
2023/07/02 11:11:06;;;;;;;11.30;5.32;;;;;;;24.17;39.71;101012.00;4976212;28;124426;-71
2023/07/02 11:13:33;;;;;;;10.18;4.80;;;;;;;24.24;39.95;101013.91;4977056;28;124324;-71